sensor_id;sensor_type;location;lat;lon;timestamp;P1;durP1;ratioP1;P2;durP2;ratioP2
30420;SDS011;17218;54.070;10.012;2022-10-16T00:01:36;9.70;;;8.35;;
30420;SDS011;17218;54.070;10.012;2022-10-16T00:04:04;10.60;;;7.45;;
30420;SDS011;17218;54.070;10.012;2022-10-16T00:06:31;13.10;;;8.15;;
30420;SDS011;17218;54.070;10.012;2022-10-16T00:08:58;9.70;;;8.65;;
30420;SDS011;17218;54.070;10.012;2022-10-16T00:11:25;9.88;;;7.45;;
30420;SDS011;17218;54.070;10.012;2022-10-16T00:13:56;10.52;;;8.63;;
30420;SDS011;17218;54.070;10.012;2022-10-16T00:16:24;9.18;;;7.18;;
30420;SDS011;17218;54.070;10.012;2022-10-16T00:18:51;9.63;;;7.63;;
30420;SDS011;17218;54.070;10.012;2022-10-16T00:21:19;9.48;;;7.60;;
30420;SDS011;17218;54.070;10.012;2022-10-16T00:23:50;9.80;;;7.57;;
30420;SDS011;17218;54.070;10.012;2022-10-16T00:26:17;9.98;;;7.53;;
30420;SDS011;17218;54.070;10.012;2022-10-16T00:28:45;11.35;;;7.32;;
30420;SDS011;17218;54.070;10.012;2022-10-16T00:31:14;9.45;;;7.43;;
30420;SDS011;17218;54.070;10.012;2022-10-16T00:33:41;12.38;;;7.60;;
30420;SDS011;17218;54.070;10.012;2022-10-16T00:36:10;12.18;;;7.50;;
30420;SDS011;17218;54.070;10.012;2022-10-16T00:38:37;10.98;;;7.20;;
30420;SDS011;17218;54.070;10.012;2022-10-16T00:41:04;7.72;;;6.88;;
30420;SDS011;17218;54.070;10.012;2022-10-16T00:43:33;11.07;;;7.38;;
30420;SDS011;17218;54.070;10.012;2022-10-16T00:46:10;7.70;;;6.82;;
30420;SDS011;17218;54.070;10.012;2022-10-16T00:48:45;9.00;;;7.15;;
30420;SDS011;17218;54.070;10.012;2022-10-16T00:51:14;10.55;;;7.15;;
30420;SDS011;17218;54.070;10.012;2022-10-16T00:53:41;9.43;;;7.35;;
30420;SDS011;17218;54.070;10.012;2022-10-16T00:56:07;10.07;;;6.95;;
30420;SDS011;17218;54.070;10.012;2022-10-16T00:58:34;9.05;;;6.40;;
30420;SDS011;17218;54.070;10.012;2022-10-16T01:01:00;9.07;;;6.90;;
30420;SDS011;17218;54.070;10.012;2022-10-16T01:03:29;9.82;;;7.00;;
30420;SDS011;17218;54.070;10.012;2022-10-16T01:06:01;12.13;;;8.07;;
30420;SDS011;17218;54.070;10.012;2022-10-16T01:08:43;9.40;;;7.20;;
30420;SDS011;17218;54.070;10.012;2022-10-16T01:11:17;11.60;;;7.57;;
30420;SDS011;17218;54.070;10.012;2022-10-16T01:13:52;11.05;;;7.43;;
30420;SDS011;17218;54.070;10.012;2022-10-16T01:16:23;11.68;;;7.03;;
30420;SDS011;17218;54.070;10.012;2022-10-16T01:19:00;11.02;;;7.53;;
30420;SDS011;17218;54.070;10.012;2022-10-16T01:21:36;9.90;;;6.85;;
30420;SDS011;17218;54.070;10.012;2022-10-16T01:24:08;16.52;;;7.93;;
30420;SDS011;17218;54.070;10.012;2022-10-16T01:26:50;13.05;;;7.30;;
30420;SDS011;17218;54.070;10.012;2022-10-16T01:29:41;10.80;;;7.35;;
30420;SDS011;17218;54.070;10.012;2022-10-16T01:32:15;11.10;;;7.38;;
30420;SDS011;17218;54.070;10.012;2022-10-16T01:34:47;12.27;;;7.88;;
30420;SDS011;17218;54.070;10.012;2022-10-16T01:37:19;11.77;;;8.05;;
30420;SDS011;17218;54.070;10.012;2022-10-16T01:39:51;10.63;;;7.45;;
30420;SDS011;17218;54.070;10.012;2022-10-16T01:42:24;9.25;;;7.40;;
30420;SDS011;17218;54.070;10.012;2022-10-16T01:44:55;13.18;;;7.55;;
30420;SDS011;17218;54.070;10.012;2022-10-16T01:47:23;10.32;;;7.38;;
30420;SDS011;17218;54.070;10.012;2022-10-16T01:49:52;7.88;;;6.47;;
30420;SDS011;17218;54.070;10.012;2022-10-16T01:52:22;9.43;;;7.45;;
30420;SDS011;17218;54.070;10.012;2022-10-16T01:54:52;8.50;;;6.82;;
30420;SDS011;17218;54.070;10.012;2022-10-16T01:57:22;10.23;;;7.30;;
30420;SDS011;17218;54.070;10.012;2022-10-16T01:59:51;10.43;;;6.90;;
30420;SDS011;17218;54.070;10.012;2022-10-16T02:02:21;9.25;;;6.75;;
30420;SDS011;17218;54.070;10.012;2022-10-16T02:04:49;8.18;;;6.20;;
30420;SDS011;17218;54.070;10.012;2022-10-16T02:07:21;11.07;;;6.28;;
30420;SDS011;17218;54.070;10.012;2022-10-16T02:09:48;8.32;;;6.03;;
30420;SDS011;17218;54.070;10.012;2022-10-16T02:12:16;6.95;;;5.15;;
30420;SDS011;17218;54.070;10.012;2022-10-16T02:14:49;7.28;;;5.90;;
30420;SDS011;17218;54.070;10.012;2022-10-16T02:17:16;7.25;;;5.15;;
30420;SDS011;17218;54.070;10.012;2022-10-16T02:19:44;9.45;;;5.88;;
30420;SDS011;17218;54.070;10.012;2022-10-16T02:22:15;9.25;;;4.72;;
30420;SDS011;17218;54.070;10.012;2022-10-16T02:24:46;6.63;;;4.75;;
30420;SDS011;17218;54.070;10.012;2022-10-16T02:27:19;6.13;;;4.50;;
30420;SDS011;17218;54.070;10.012;2022-10-16T02:29:55;6.53;;;4.20;;
30420;SDS011;17218;54.070;10.012;2022-10-16T02:32:28;7.13;;;4.05;;
30420;SDS011;17218;54.070;10.012;2022-10-16T02:34:57;5.38;;;4.25;;
30420;SDS011;17218;54.070;10.012;2022-10-16T02:37:25;6.00;;;4.13;;
30420;SDS011;17218;54.070;10.012;2022-10-16T02:39:53;4.75;;;3.70;;
30420;SDS011;17218;54.070;10.012;2022-10-16T02:42:21;5.93;;;3.42;;
30420;SDS011;17218;54.070;10.012;2022-10-16T02:44:55;5.60;;;3.67;;
30420;SDS011;17218;54.070;10.012;2022-10-16T02:47:22;7.70;;;3.67;;
30420;SDS011;17218;54.070;10.012;2022-10-16T02:49:48;8.73;;;3.40;;
30420;SDS011;17218;54.070;10.012;2022-10-16T02:52:15;4.30;;;3.05;;
30420;SDS011;17218;54.070;10.012;2022-10-16T02:54:41;5.75;;;3.40;;
30420;SDS011;17218;54.070;10.012;2022-10-16T02:57:08;3.00;;;2.70;;
30420;SDS011;17218;54.070;10.012;2022-10-16T02:59:34;7.32;;;2.70;;
30420;SDS011;17218;54.070;10.012;2022-10-16T03:02:02;4.40;;;2.58;;
30420;SDS011;17218;54.070;10.012;2022-10-16T03:04:28;4.53;;;2.60;;
30420;SDS011;17218;54.070;10.012;2022-10-16T03:06:55;5.10;;;2.70;;
30420;SDS011;17218;54.070;10.012;2022-10-16T03:09:21;5.57;;;2.58;;
30420;SDS011;17218;54.070;10.012;2022-10-16T03:11:48;6.03;;;2.70;;
30420;SDS011;17218;54.070;10.012;2022-10-16T03:14:15;6.15;;;2.25;;
30420;SDS011;17218;54.070;10.012;2022-10-16T03:16:41;5.55;;;2.47;;
30420;SDS011;17218;54.070;10.012;2022-10-16T03:19:09;4.32;;;2.70;;
30420;SDS011;17218;54.070;10.012;2022-10-16T03:21:35;6.88;;;2.45;;
30420;SDS011;17218;54.070;10.012;2022-10-16T03:24:02;5.50;;;2.42;;
30420;SDS011;17218;54.070;10.012;2022-10-16T03:26:29;5.60;;;2.97;;
30420;SDS011;17218;54.070;10.012;2022-10-16T03:28:55;3.28;;;2.25;;
30420;SDS011;17218;54.070;10.012;2022-10-16T03:31:22;5.13;;;2.45;;
30420;SDS011;17218;54.070;10.012;2022-10-16T03:33:48;5.05;;;2.40;;
30420;SDS011;17218;54.070;10.012;2022-10-16T03:36:16;5.97;;;2.53;;
30420;SDS011;17218;54.070;10.012;2022-10-16T03:38:42;4.07;;;2.03;;
30420;SDS011;17218;54.070;10.012;2022-10-16T03:41:09;6.25;;;2.25;;
30420;SDS011;17218;54.070;10.012;2022-10-16T03:43:35;7.00;;;2.03;;
30420;SDS011;17218;54.070;10.012;2022-10-16T03:46:02;6.40;;;2.53;;
30420;SDS011;17218;54.070;10.012;2022-10-16T03:48:28;6.15;;;2.30;;
30420;SDS011;17218;54.070;10.012;2022-10-16T03:50:55;5.57;;;2.13;;
30420;SDS011;17218;54.070;10.012;2022-10-16T03:53:23;3.30;;;1.90;;
30420;SDS011;17218;54.070;10.012;2022-10-16T03:55:49;3.85;;;1.80;;
30420;SDS011;17218;54.070;10.012;2022-10-16T03:58:16;4.20;;;2.47;;
30420;SDS011;17218;54.070;10.012;2022-10-16T04:00:43;4.28;;;2.00;;
30420;SDS011;17218;54.070;10.012;2022-10-16T04:03:10;3.53;;;2.00;;
30420;SDS011;17218;54.070;10.012;2022-10-16T04:05:37;4.93;;;2.08;;
30420;SDS011;17218;54.070;10.012;2022-10-16T04:08:04;4.40;;;2.22;;
30420;SDS011;17218;54.070;10.012;2022-10-16T04:10:32;5.47;;;1.83;;
30420;SDS011;17218;54.070;10.012;2022-10-16T04:12:58;6.50;;;2.67;;
30420;SDS011;17218;54.070;10.012;2022-10-16T04:15:25;5.75;;;2.40;;
30420;SDS011;17218;54.070;10.012;2022-10-16T04:17:51;3.10;;;2.17;;
30420;SDS011;17218;54.070;10.012;2022-10-16T04:20:18;10.18;;;2.53;;
30420;SDS011;17218;54.070;10.012;2022-10-16T04:22:44;5.80;;;2.20;;
30420;SDS011;17218;54.070;10.012;2022-10-16T04:25:11;3.90;;;2.00;;
30420;SDS011;17218;54.070;10.012;2022-10-16T04:27:39;3.28;;;2.33;;
30420;SDS011;17218;54.070;10.012;2022-10-16T04:30:06;4.68;;;2.17;;
30420;SDS011;17218;54.070;10.012;2022-10-16T04:32:33;3.15;;;2.10;;
30420;SDS011;17218;54.070;10.012;2022-10-16T04:34:59;4.70;;;1.98;;
30420;SDS011;17218;54.070;10.012;2022-10-16T04:37:26;4.13;;;1.88;;
30420;SDS011;17218;54.070;10.012;2022-10-16T04:39:53;4.50;;;2.85;;
30420;SDS011;17218;54.070;10.012;2022-10-16T04:42:20;6.82;;;2.40;;
30420;SDS011;17218;54.070;10.012;2022-10-16T04:44:48;5.75;;;2.40;;
30420;SDS011;17218;54.070;10.012;2022-10-16T04:47:14;3.35;;;1.90;;
30420;SDS011;17218;54.070;10.012;2022-10-16T04:49:40;3.28;;;1.90;;
30420;SDS011;17218;54.070;10.012;2022-10-16T04:52:07;3.67;;;1.50;;
30420;SDS011;17218;54.070;10.012;2022-10-16T04:54:34;4.55;;;1.77;;
30420;SDS011;17218;54.070;10.012;2022-10-16T04:57:01;5.57;;;1.70;;
30420;SDS011;17218;54.070;10.012;2022-10-16T04:59:27;3.53;;;1.60;;
30420;SDS011;17218;54.070;10.012;2022-10-16T05:01:55;6.97;;;2.70;;
30420;SDS011;17218;54.070;10.012;2022-10-16T05:04:21;6.40;;;1.70;;
30420;SDS011;17218;54.070;10.012;2022-10-16T05:06:48;5.93;;;1.80;;
30420;SDS011;17218;54.070;10.012;2022-10-16T05:09:15;4.75;;;1.63;;
30420;SDS011;17218;54.070;10.012;2022-10-16T05:11:41;4.38;;;1.85;;
30420;SDS011;17218;54.070;10.012;2022-10-16T05:14:07;5.00;;;1.58;;
30420;SDS011;17218;54.070;10.012;2022-10-16T05:16:34;2.95;;;1.45;;
30420;SDS011;17218;54.070;10.012;2022-10-16T05:19:02;2.42;;;1.27;;
30420;SDS011;17218;54.070;10.012;2022-10-16T05:21:28;1.45;;;1.20;;
30420;SDS011;17218;54.070;10.012;2022-10-16T05:23:55;3.33;;;1.98;;
30420;SDS011;17218;54.070;10.012;2022-10-16T05:26:21;1.95;;;1.45;;
30420;SDS011;17218;54.070;10.012;2022-10-16T05:28:48;5.55;;;1.98;;
30420;SDS011;17218;54.070;10.012;2022-10-16T05:31:15;2.13;;;1.10;;
30420;SDS011;17218;54.070;10.012;2022-10-16T05:33:41;2.55;;;1.20;;
30420;SDS011;17218;54.070;10.012;2022-10-16T05:36:10;2.25;;;1.42;;
30420;SDS011;17218;54.070;10.012;2022-10-16T05:38:38;3.15;;;1.70;;
30420;SDS011;17218;54.070;10.012;2022-10-16T05:41:05;4.20;;;1.48;;
30420;SDS011;17218;54.070;10.012;2022-10-16T05:43:31;2.55;;;1.38;;
30420;SDS011;17218;54.070;10.012;2022-10-16T05:45:59;3.22;;;1.35;;
30420;SDS011;17218;54.070;10.012;2022-10-16T05:48:27;3.70;;;1.73;;
30420;SDS011;17218;54.070;10.012;2022-10-16T05:50:57;3.65;;;1.70;;
30420;SDS011;17218;54.070;10.012;2022-10-16T05:53:26;3.65;;;1.67;;
30420;SDS011;17218;54.070;10.012;2022-10-16T05:55:53;2.03;;;1.35;;
30420;SDS011;17218;54.070;10.012;2022-10-16T05:58:19;3.80;;;1.50;;
30420;SDS011;17218;54.070;10.012;2022-10-16T06:00:52;4.38;;;1.40;;
30420;SDS011;17218;54.070;10.012;2022-10-16T06:03:19;4.65;;;1.25;;
30420;SDS011;17218;54.070;10.012;2022-10-16T06:05:45;4.30;;;1.67;;
30420;SDS011;17218;54.070;10.012;2022-10-16T06:08:12;4.63;;;1.33;;
30420;SDS011;17218;54.070;10.012;2022-10-16T06:10:39;1.83;;;1.27;;
30420;SDS011;17218;54.070;10.012;2022-10-16T06:13:06;2.75;;;1.63;;
30420;SDS011;17218;54.070;10.012;2022-10-16T06:15:32;3.08;;;1.40;;
30420;SDS011;17218;54.070;10.012;2022-10-16T06:17:59;2.92;;;1.55;;
30420;SDS011;17218;54.070;10.012;2022-10-16T06:20:25;3.53;;;1.40;;
30420;SDS011;17218;54.070;10.012;2022-10-16T06:22:52;2.95;;;1.23;;
30420;SDS011;17218;54.070;10.012;2022-10-16T06:25:18;4.40;;;1.80;;
30420;SDS011;17218;54.070;10.012;2022-10-16T06:27:46;6.20;;;1.90;;
30420;SDS011;17218;54.070;10.012;2022-10-16T06:30:13;5.28;;;1.80;;
30420;SDS011;17218;54.070;10.012;2022-10-16T06:32:39;3.50;;;1.40;;
30420;SDS011;17218;54.070;10.012;2022-10-16T06:35:06;3.15;;;1.80;;
30420;SDS011;17218;54.070;10.012;2022-10-16T06:37:33;4.57;;;1.70;;
30420;SDS011;17218;54.070;10.012;2022-10-16T06:39:59;3.65;;;1.60;;
30420;SDS011;17218;54.070;10.012;2022-10-16T06:42:29;2.45;;;1.52;;
30420;SDS011;17218;54.070;10.012;2022-10-16T06:44:57;3.83;;;1.35;;
30420;SDS011;17218;54.070;10.012;2022-10-16T06:47:23;3.13;;;1.85;;
30420;SDS011;17218;54.070;10.012;2022-10-16T06:49:50;5.07;;;2.33;;
30420;SDS011;17218;54.070;10.012;2022-10-16T06:52:16;3.67;;;1.98;;
30420;SDS011;17218;54.070;10.012;2022-10-16T06:54:43;8.35;;;3.65;;
30420;SDS011;17218;54.070;10.012;2022-10-16T06:57:09;3.53;;;1.80;;
30420;SDS011;17218;54.070;10.012;2022-10-16T06:59:36;3.92;;;2.33;;
30420;SDS011;17218;54.070;10.012;2022-10-16T07:02:04;6.57;;;2.50;;
30420;SDS011;17218;54.070;10.012;2022-10-16T07:04:32;4.10;;;1.98;;
30420;SDS011;17218;54.070;10.012;2022-10-16T07:06:59;3.30;;;2.03;;
30420;SDS011;17218;54.070;10.012;2022-10-16T07:09:26;4.43;;;2.30;;
30420;SDS011;17218;54.070;10.012;2022-10-16T07:11:52;4.18;;;2.50;;
30420;SDS011;17218;54.070;10.012;2022-10-16T07:14:19;5.75;;;2.92;;
30420;SDS011;17218;54.070;10.012;2022-10-16T07:16:47;4.57;;;2.70;;
30420;SDS011;17218;54.070;10.012;2022-10-16T07:19:15;3.45;;;2.13;;
30420;SDS011;17218;54.070;10.012;2022-10-16T07:21:43;5.43;;;2.60;;
30420;SDS011;17218;54.070;10.012;2022-10-16T07:24:11;5.25;;;1.95;;
30420;SDS011;17218;54.070;10.012;2022-10-16T07:26:39;4.65;;;2.50;;
30420;SDS011;17218;54.070;10.012;2022-10-16T07:29:07;2.53;;;1.92;;
30420;SDS011;17218;54.070;10.012;2022-10-16T07:31:38;4.72;;;2.85;;
30420;SDS011;17218;54.070;10.012;2022-10-16T07:34:05;5.43;;;2.78;;
30420;SDS011;17218;54.070;10.012;2022-10-16T07:36:33;4.85;;;3.40;;
30420;SDS011;17218;54.070;10.012;2022-10-16T07:38:59;6.40;;;2.80;;
30420;SDS011;17218;54.070;10.012;2022-10-16T07:41:26;4.18;;;2.70;;
30420;SDS011;17218;54.070;10.012;2022-10-16T07:43:53;4.28;;;3.03;;
30420;SDS011;17218;54.070;10.012;2022-10-16T07:46:22;5.60;;;3.33;;
30420;SDS011;17218;54.070;10.012;2022-10-16T07:48:49;5.20;;;2.95;;
30420;SDS011;17218;54.070;10.012;2022-10-16T07:51:16;7.53;;;3.25;;
30420;SDS011;17218;54.070;10.012;2022-10-16T07:53:46;4.80;;;3.00;;
30420;SDS011;17218;54.070;10.012;2022-10-16T07:56:13;5.43;;;3.00;;
30420;SDS011;17218;54.070;10.012;2022-10-16T07:58:39;4.78;;;3.17;;
30420;SDS011;17218;54.070;10.012;2022-10-16T08:01:07;4.75;;;3.05;;
30420;SDS011;17218;54.070;10.012;2022-10-16T08:03:35;6.35;;;3.58;;
30420;SDS011;17218;54.070;10.012;2022-10-16T08:06:02;3.60;;;3.30;;
30420;SDS011;17218;54.070;10.012;2022-10-16T08:08:30;6.75;;;4.03;;
30420;SDS011;17218;54.070;10.012;2022-10-16T08:10:58;5.38;;;3.60;;
30420;SDS011;17218;54.070;10.012;2022-10-16T08:13:24;6.30;;;3.72;;
30420;SDS011;17218;54.070;10.012;2022-10-16T08:15:51;8.05;;;4.05;;
30420;SDS011;17218;54.070;10.012;2022-10-16T08:18:19;6.35;;;3.92;;
30420;SDS011;17218;54.070;10.012;2022-10-16T08:20:46;5.18;;;3.67;;
30420;SDS011;17218;54.070;10.012;2022-10-16T08:23:12;4.75;;;3.53;;
30420;SDS011;17218;54.070;10.012;2022-10-16T08:25:39;8.05;;;3.63;;
30420;SDS011;17218;54.070;10.012;2022-10-16T08:28:08;6.00;;;3.78;;
30420;SDS011;17218;54.070;10.012;2022-10-16T08:30:36;6.55;;;3.97;;
30420;SDS011;17218;54.070;10.012;2022-10-16T08:33:03;5.80;;;3.70;;
30420;SDS011;17218;54.070;10.012;2022-10-16T08:35:31;5.90;;;3.25;;
30420;SDS011;17218;54.070;10.012;2022-10-16T08:37:57;8.30;;;3.90;;
30420;SDS011;17218;54.070;10.012;2022-10-16T08:40:24;6.60;;;3.60;;
30420;SDS011;17218;54.070;10.012;2022-10-16T08:42:57;9.20;;;3.97;;
30420;SDS011;17218;54.070;10.012;2022-10-16T08:45:35;6.00;;;3.65;;
30420;SDS011;17218;54.070;10.012;2022-10-16T08:48:15;7.80;;;4.10;;
30420;SDS011;17218;54.070;10.012;2022-10-16T08:50:46;7.25;;;3.70;;
30420;SDS011;17218;54.070;10.012;2022-10-16T08:53:17;6.68;;;3.63;;
30420;SDS011;17218;54.070;10.012;2022-10-16T08:55:49;5.18;;;3.05;;
30420;SDS011;17218;54.070;10.012;2022-10-16T08:58:18;7.20;;;3.50;;
30420;SDS011;17218;54.070;10.012;2022-10-16T09:00:47;7.53;;;3.88;;
30420;SDS011;17218;54.070;10.012;2022-10-16T09:03:17;8.45;;;4.30;;
30420;SDS011;17218;54.070;10.012;2022-10-16T09:05:52;6.57;;;3.42;;
30420;SDS011;17218;54.070;10.012;2022-10-16T09:08:27;6.85;;;3.60;;
30420;SDS011;17218;54.070;10.012;2022-10-16T09:11:02;5.35;;;3.40;;
30420;SDS011;17218;54.070;10.012;2022-10-16T09:13:39;7.03;;;3.47;;
30420;SDS011;17218;54.070;10.012;2022-10-16T09:16:16;6.07;;;3.65;;
30420;SDS011;17218;54.070;10.012;2022-10-16T09:18:49;5.10;;;3.10;;
30420;SDS011;17218;54.070;10.012;2022-10-16T09:21:23;9.07;;;3.10;;
30420;SDS011;17218;54.070;10.012;2022-10-16T09:23:51;8.43;;;3.30;;
30420;SDS011;17218;54.070;10.012;2022-10-16T09:26:18;4.68;;;2.58;;
30420;SDS011;17218;54.070;10.012;2022-10-16T09:28:47;4.07;;;2.80;;
30420;SDS011;17218;54.070;10.012;2022-10-16T09:31:17;4.57;;;3.10;;
30420;SDS011;17218;54.070;10.012;2022-10-16T09:33:48;7.93;;;3.25;;
30420;SDS011;17218;54.070;10.012;2022-10-16T09:36:18;3.47;;;2.53;;
30420;SDS011;17218;54.070;10.012;2022-10-16T09:38:46;4.35;;;2.92;;
30420;SDS011;17218;54.070;10.012;2022-10-16T09:41:15;6.43;;;3.00;;
30420;SDS011;17218;54.070;10.012;2022-10-16T09:43:48;7.07;;;2.92;;
30420;SDS011;17218;54.070;10.012;2022-10-16T09:46:24;6.25;;;3.47;;
30420;SDS011;17218;54.070;10.012;2022-10-16T09:48:53;6.55;;;3.55;;
30420;SDS011;17218;54.070;10.012;2022-10-16T09:51:23;9.23;;;3.30;;
30420;SDS011;17218;54.070;10.012;2022-10-16T09:53:54;5.57;;;2.88;;
30420;SDS011;17218;54.070;10.012;2022-10-16T09:56:23;6.05;;;3.05;;
30420;SDS011;17218;54.070;10.012;2022-10-16T09:58:52;5.60;;;3.28;;
30420;SDS011;17218;54.070;10.012;2022-10-16T10:01:20;6.70;;;3.28;;
30420;SDS011;17218;54.070;10.012;2022-10-16T10:03:51;6.30;;;3.42;;
30420;SDS011;17218;54.070;10.012;2022-10-16T10:06:26;5.72;;;3.20;;
30420;SDS011;17218;54.070;10.012;2022-10-16T10:08:59;6.88;;;3.67;;
30420;SDS011;17218;54.070;10.012;2022-10-16T10:11:41;6.78;;;2.75;;
30420;SDS011;17218;54.070;10.012;2022-10-16T10:17:06;5.53;;;2.80;;
30420;SDS011;17218;54.070;10.012;2022-10-16T10:19:41;4.28;;;2.40;;
30420;SDS011;17218;54.070;10.012;2022-10-16T10:22:16;4.38;;;2.40;;
30420;SDS011;17218;54.070;10.012;2022-10-16T10:24:44;6.65;;;2.40;;
30420;SDS011;17218;54.070;10.012;2022-10-16T10:27:20;3.75;;;2.35;;
30420;SDS011;17218;54.070;10.012;2022-10-16T10:29:52;3.38;;;2.25;;
30420;SDS011;17218;54.070;10.012;2022-10-16T10:32:27;6.32;;;2.10;;
30420;SDS011;17218;54.070;10.012;2022-10-16T10:35:07;5.63;;;2.67;;
30420;SDS011;17218;54.070;10.012;2022-10-16T10:37:48;6.78;;;2.22;;
30420;SDS011;17218;54.070;10.012;2022-10-16T10:40:28;5.25;;;2.10;;
30420;SDS011;17218;54.070;10.012;2022-10-16T10:43:05;9.43;;;2.75;;
30420;SDS011;17218;54.070;10.012;2022-10-16T10:45:42;5.20;;;2.45;;
30420;SDS011;17218;54.070;10.012;2022-10-16T10:48:20;4.95;;;2.30;;
30420;SDS011;17218;54.070;10.012;2022-10-16T10:51:15;8.90;;;2.65;;
30420;SDS011;17218;54.070;10.012;2022-10-16T10:53:50;5.38;;;2.10;;
30420;SDS011;17218;54.070;10.012;2022-10-16T10:56:30;4.90;;;2.00;;
30420;SDS011;17218;54.070;10.012;2022-10-16T10:59:11;4.65;;;1.83;;
30420;SDS011;17218;54.070;10.012;2022-10-16T11:01:53;7.13;;;2.35;;
30420;SDS011;17218;54.070;10.012;2022-10-16T11:04:27;5.25;;;2.10;;
30420;SDS011;17218;54.070;10.012;2022-10-16T11:07:03;6.82;;;1.90;;
30420;SDS011;17218;54.070;10.012;2022-10-16T11:09:34;5.32;;;1.50;;
30420;SDS011;17218;54.070;10.012;2022-10-16T11:12:05;5.50;;;1.70;;
30420;SDS011;17218;54.070;10.012;2022-10-16T11:14:39;6.35;;;1.45;;
30420;SDS011;17218;54.070;10.012;2022-10-16T11:17:10;6.32;;;1.73;;
30420;SDS011;17218;54.070;10.012;2022-10-16T11:19:44;2.85;;;1.60;;
30420;SDS011;17218;54.070;10.012;2022-10-16T11:22:17;5.50;;;1.17;;
30420;SDS011;17218;54.070;10.012;2022-10-16T11:24:48;3.85;;;1.80;;
30420;SDS011;17218;54.070;10.012;2022-10-16T11:27:23;2.10;;;1.17;;
30420;SDS011;17218;54.070;10.012;2022-10-16T11:29:59;3.58;;;1.80;;
30420;SDS011;17218;54.070;10.012;2022-10-16T11:32:31;7.50;;;1.35;;
30420;SDS011;17218;54.070;10.012;2022-10-16T11:35:02;7.88;;;2.55;;
30420;SDS011;17218;54.070;10.012;2022-10-16T11:37:38;7.00;;;1.30;;
30420;SDS011;17218;54.070;10.012;2022-10-16T11:40:16;6.00;;;1.52;;
30420;SDS011;17218;54.070;10.012;2022-10-16T11:42:49;3.40;;;1.20;;
30420;SDS011;17218;54.070;10.012;2022-10-16T11:55:42;3.22;;;1.08;;
30420;SDS011;17218;54.070;10.012;2022-10-16T11:58:12;7.13;;;1.38;;
30420;SDS011;17218;54.070;10.012;2022-10-16T12:00:47;3.28;;;1.30;;
30420;SDS011;17218;54.070;10.012;2022-10-16T12:03:22;4.28;;;1.55;;
30420;SDS011;17218;54.070;10.012;2022-10-16T12:05:59;2.65;;;1.00;;
30420;SDS011;17218;54.070;10.012;2022-10-16T12:08:48;5.93;;;1.40;;
30420;SDS011;17218;54.070;10.012;2022-10-16T12:11:22;4.07;;;1.45;;
30420;SDS011;17218;54.070;10.012;2022-10-16T12:14:03;5.07;;;1.40;;
30420;SDS011;17218;54.070;10.012;2022-10-16T12:16:50;5.68;;;1.58;;
30420;SDS011;17218;54.070;10.012;2022-10-16T12:19:18;3.75;;;1.40;;
30420;SDS011;17218;54.070;10.012;2022-10-16T12:21:55;5.35;;;1.17;;
30420;SDS011;17218;54.070;10.012;2022-10-16T12:24:31;5.13;;;1.38;;
30420;SDS011;17218;54.070;10.012;2022-10-16T12:27:02;4.43;;;1.42;;
30420;SDS011;17218;54.070;10.012;2022-10-16T12:29:35;4.47;;;1.33;;
30420;SDS011;17218;54.070;10.012;2022-10-16T12:32:04;4.97;;;1.15;;
30420;SDS011;17218;54.070;10.012;2022-10-16T12:34:44;4.47;;;1.23;;
30420;SDS011;17218;54.070;10.012;2022-10-16T12:37:13;7.13;;;1.80;;
30420;SDS011;17218;54.070;10.012;2022-10-16T12:39:44;5.82;;;1.60;;
30420;SDS011;17218;54.070;10.012;2022-10-16T12:42:21;4.50;;;1.00;;
30420;SDS011;17218;54.070;10.012;2022-10-16T12:44:50;4.50;;;1.50;;
30420;SDS011;17218;54.070;10.012;2022-10-16T12:47:21;2.65;;;1.20;;
30420;SDS011;17218;54.070;10.012;2022-10-16T12:49:48;4.82;;;1.58;;
30420;SDS011;17218;54.070;10.012;2022-10-16T12:52:26;7.32;;;2.03;;
30420;SDS011;17218;54.070;10.012;2022-10-16T12:54:56;4.20;;;1.35;;
30420;SDS011;17218;54.070;10.012;2022-10-16T12:57:29;5.07;;;1.52;;
30420;SDS011;17218;54.070;10.012;2022-10-16T13:00:04;6.38;;;1.60;;
30420;SDS011;17218;54.070;10.012;2022-10-16T13:02:46;7.20;;;1.30;;
30420;SDS011;17218;54.070;10.012;2022-10-16T13:05:54;4.97;;;1.98;;
30420;SDS011;17218;54.070;10.012;2022-10-16T13:08:46;6.70;;;1.48;;
30420;SDS011;17218;54.070;10.012;2022-10-16T13:11:31;7.10;;;1.60;;
30420;SDS011;17218;54.070;10.012;2022-10-16T13:14:17;5.13;;;1.90;;
30420;SDS011;17218;54.070;10.012;2022-10-16T13:17:07;4.88;;;1.20;;
30420;SDS011;17218;54.070;10.012;2022-10-16T13:19:44;3.92;;;1.40;;
30420;SDS011;17218;54.070;10.012;2022-10-16T13:22:18;7.75;;;1.70;;
30420;SDS011;17218;54.070;10.012;2022-10-16T13:24:58;3.67;;;1.40;;
30420;SDS011;17218;54.070;10.012;2022-10-16T13:27:41;3.63;;;2.10;;
30420;SDS011;17218;54.070;10.012;2022-10-16T13:30:17;4.78;;;1.38;;
30420;SDS011;17218;54.070;10.012;2022-10-16T13:32:47;4.30;;;1.63;;
30420;SDS011;17218;54.070;10.012;2022-10-16T13:35:19;3.53;;;1.30;;
30420;SDS011;17218;54.070;10.012;2022-10-16T13:37:48;3.63;;;1.27;;
30420;SDS011;17218;54.070;10.012;2022-10-16T13:40:19;1.98;;;1.20;;
30420;SDS011;17218;54.070;10.012;2022-10-16T13:42:47;4.50;;;1.27;;
30420;SDS011;17218;54.070;10.012;2022-10-16T13:45:20;4.43;;;1.27;;
30420;SDS011;17218;54.070;10.012;2022-10-16T13:47:48;3.90;;;1.35;;
30420;SDS011;17218;54.070;10.012;2022-10-16T13:50:15;5.45;;;1.63;;
30420;SDS011;17218;54.070;10.012;2022-10-16T13:52:44;6.43;;;1.50;;
30420;SDS011;17218;54.070;10.012;2022-10-16T13:55:11;5.55;;;1.55;;
30420;SDS011;17218;54.070;10.012;2022-10-16T13:57:39;4.13;;;1.38;;
30420;SDS011;17218;54.070;10.012;2022-10-16T14:00:17;3.30;;;1.17;;
30420;SDS011;17218;54.070;10.012;2022-10-16T14:02:49;4.32;;;1.73;;
30420;SDS011;17218;54.070;10.012;2022-10-16T14:05:18;5.88;;;2.17;;
30420;SDS011;17218;54.070;10.012;2022-10-16T14:07:47;4.40;;;1.30;;
30420;SDS011;17218;54.070;10.012;2022-10-16T14:10:20;4.80;;;1.23;;
30420;SDS011;17218;54.070;10.012;2022-10-16T14:12:54;3.75;;;1.30;;
30420;SDS011;17218;54.070;10.012;2022-10-16T14:15:23;6.05;;;1.30;;
30420;SDS011;17218;54.070;10.012;2022-10-16T14:17:50;3.80;;;1.30;;
30420;SDS011;17218;54.070;10.012;2022-10-16T14:20:18;7.40;;;1.60;;
30420;SDS011;17218;54.070;10.012;2022-10-16T14:22:57;5.32;;;1.77;;
30420;SDS011;17218;54.070;10.012;2022-10-16T14:25:26;6.60;;;1.45;;
30420;SDS011;17218;54.070;10.012;2022-10-16T14:27:58;5.82;;;1.75;;
30420;SDS011;17218;54.070;10.012;2022-10-16T14:30:32;3.53;;;1.42;;
30420;SDS011;17218;54.070;10.012;2022-10-16T14:33:00;3.78;;;1.40;;
30420;SDS011;17218;54.070;10.012;2022-10-16T14:35:29;4.60;;;1.23;;
30420;SDS011;17218;54.070;10.012;2022-10-16T14:37:58;9.95;;;1.75;;
30420;SDS011;17218;54.070;10.012;2022-10-16T14:40:27;3.55;;;1.10;;
30420;SDS011;17218;54.070;10.012;2022-10-16T14:42:55;5.72;;;1.83;;
30420;SDS011;17218;54.070;10.012;2022-10-16T14:45:23;3.63;;;1.23;;
30420;SDS011;17218;54.070;10.012;2022-10-16T14:47:54;4.90;;;1.33;;
30420;SDS011;17218;54.070;10.012;2022-10-16T14:50:22;5.35;;;1.35;;
30420;SDS011;17218;54.070;10.012;2022-10-16T14:52:49;2.50;;;1.05;;
30420;SDS011;17218;54.070;10.012;2022-10-16T14:55:16;3.92;;;1.30;;
30420;SDS011;17218;54.070;10.012;2022-10-16T14:57:43;5.88;;;1.67;;
30420;SDS011;17218;54.070;10.012;2022-10-16T15:00:15;6.75;;;1.80;;
30420;SDS011;17218;54.070;10.012;2022-10-16T15:02:44;7.93;;;1.50;;
30420;SDS011;17218;54.070;10.012;2022-10-16T15:05:14;5.28;;;1.75;;